sensor_id;sensor_type;location;lat;lon;timestamp;P1;durP1;ratioP1;P2;durP2;ratioP2
5458;SDS011;2752;49.992;8.422;2022-09-09T00:01:19;2.93;;;1.53;;
5458;SDS011;2752;49.992;8.422;2022-09-09T00:03:50;2.53;;;1.37;;
5458;SDS011;2752;49.992;8.422;2022-09-09T00:06:20;4.67;;;1.40;;
5458;SDS011;2752;49.992;8.422;2022-09-09T00:08:51;4.03;;;1.47;;
5458;SDS011;2752;49.992;8.422;2022-09-09T00:11:20;7.00;;;1.30;;
5458;SDS011;2752;49.992;8.422;2022-09-09T00:13:52;6.80;;;2.37;;
5458;SDS011;2752;49.992;8.422;2022-09-09T00:16:23;4.77;;;1.40;;
5458;SDS011;2752;49.992;8.422;2022-09-09T00:18:53;7.80;;;1.83;;
5458;SDS011;2752;49.992;8.422;2022-09-09T00:21:23;3.33;;;1.53;;
5458;SDS011;2752;49.992;8.422;2022-09-09T00:23:53;5.97;;;1.50;;
5458;SDS011;2752;49.992;8.422;2022-09-09T00:26:22;5.80;;;1.60;;
5458;SDS011;2752;49.992;8.422;2022-09-09T00:28:57;1.80;;;1.17;;
5458;SDS011;2752;49.992;8.422;2022-09-09T00:31:29;2.20;;;1.30;;
5458;SDS011;2752;49.992;8.422;2022-09-09T00:33:57;1.63;;;1.07;;
5458;SDS011;2752;49.992;8.422;2022-09-09T00:36:27;2.60;;;1.50;;
5458;SDS011;2752;49.992;8.422;2022-09-09T00:38:55;4.30;;;1.30;;
5458;SDS011;2752;49.992;8.422;2022-09-09T00:41:25;5.30;;;1.07;;
5458;SDS011;2752;49.992;8.422;2022-09-09T00:43:55;9.13;;;1.37;;
5458;SDS011;2752;49.992;8.422;2022-09-09T00:46:34;5.50;;;1.50;;
5458;SDS011;2752;49.992;8.422;2022-09-09T00:49:10;2.90;;;1.53;;
5458;SDS011;2752;49.992;8.422;2022-09-09T00:51:44;2.93;;;1.10;;
5458;SDS011;2752;49.992;8.422;2022-09-09T00:57:03;6.73;;;1.53;;
5458;SDS011;2752;49.992;8.422;2022-09-09T00:59:32;7.47;;;1.40;;
5458;SDS011;2752;49.992;8.422;2022-09-09T01:02:04;5.10;;;1.67;;
5458;SDS011;2752;49.992;8.422;2022-09-09T01:04:34;5.50;;;1.80;;
5458;SDS011;2752;49.992;8.422;2022-09-09T01:07:04;3.50;;;1.23;;
5458;SDS011;2752;49.992;8.422;2022-09-09T01:09:34;4.13;;;1.00;;
5458;SDS011;2752;49.992;8.422;2022-09-09T01:12:07;4.50;;;1.20;;
5458;SDS011;2752;49.992;8.422;2022-09-09T01:14:39;2.00;;;1.30;;
5458;SDS011;2752;49.992;8.422;2022-09-09T01:17:10;4.30;;;1.40;;
5458;SDS011;2752;49.992;8.422;2022-09-09T01:19:41;2.93;;;1.00;;
5458;SDS011;2752;49.992;8.422;2022-09-09T01:22:11;6.10;;;1.63;;
5458;SDS011;2752;49.992;8.422;2022-09-09T01:24:43;2.77;;;1.70;;
5458;SDS011;2752;49.992;8.422;2022-09-09T01:27:15;6.00;;;1.53;;
5458;SDS011;2752;49.992;8.422;2022-09-09T01:29:43;4.83;;;1.73;;
5458;SDS011;2752;49.992;8.422;2022-09-09T01:34:56;5.77;;;1.83;;
5458;SDS011;2752;49.992;8.422;2022-09-09T01:37:23;2.83;;;1.50;;
5458;SDS011;2752;49.992;8.422;2022-09-09T01:39:50;6.87;;;1.90;;
5458;SDS011;2752;49.992;8.422;2022-09-09T01:42:18;3.90;;;1.60;;
5458;SDS011;2752;49.992;8.422;2022-09-09T01:44:45;7.20;;;1.60;;
5458;SDS011;2752;49.992;8.422;2022-09-09T01:47:13;3.10;;;1.50;;
5458;SDS011;2752;49.992;8.422;2022-09-09T01:49:42;6.40;;;1.77;;
5458;SDS011;2752;49.992;8.422;2022-09-09T01:52:09;4.13;;;1.87;;
5458;SDS011;2752;49.992;8.422;2022-09-09T01:54:36;7.40;;;2.20;;
5458;SDS011;2752;49.992;8.422;2022-09-09T01:57:06;3.73;;;1.60;;
5458;SDS011;2752;49.992;8.422;2022-09-09T01:59:47;3.60;;;2.80;;
5458;SDS011;2752;49.992;8.422;2022-09-09T02:02:16;6.93;;;1.90;;
5458;SDS011;2752;49.992;8.422;2022-09-09T02:04:44;3.20;;;1.40;;
5458;SDS011;2752;49.992;8.422;2022-09-09T02:07:19;2.80;;;2.13;;
5458;SDS011;2752;49.992;8.422;2022-09-09T02:09:49;4.90;;;1.93;;
5458;SDS011;2752;49.992;8.422;2022-09-09T02:12:18;2.40;;;1.40;;
5458;SDS011;2752;49.992;8.422;2022-09-09T02:14:50;6.90;;;1.43;;
5458;SDS011;2752;49.992;8.422;2022-09-09T02:17:19;8.13;;;1.43;;
5458;SDS011;2752;49.992;8.422;2022-09-09T02:19:51;5.13;;;1.80;;
5458;SDS011;2752;49.992;8.422;2022-09-09T02:22:19;4.50;;;1.70;;
5458;SDS011;2752;49.992;8.422;2022-09-09T02:24:48;2.60;;;1.60;;
5458;SDS011;2752;49.992;8.422;2022-09-09T02:27:18;6.13;;;2.07;;
5458;SDS011;2752;49.992;8.422;2022-09-09T02:29:45;7.83;;;1.87;;
5458;SDS011;2752;49.992;8.422;2022-09-09T02:32:14;5.20;;;1.90;;
5458;SDS011;2752;49.992;8.422;2022-09-09T02:34:43;5.23;;;1.77;;
5458;SDS011;2752;49.992;8.422;2022-09-09T02:37:11;6.63;;;2.30;;
5458;SDS011;2752;49.992;8.422;2022-09-09T02:39:38;7.63;;;2.10;;
5458;SDS011;2752;49.992;8.422;2022-09-09T02:42:05;19.03;;;1.60;;
5458;SDS011;2752;49.992;8.422;2022-09-09T02:44:33;4.70;;;1.70;;
5458;SDS011;2752;49.992;8.422;2022-09-09T02:49:52;7.77;;;1.60;;
5458;SDS011;2752;49.992;8.422;2022-09-09T02:52:26;6.30;;;2.20;;
5458;SDS011;2752;49.992;8.422;2022-09-09T02:54:54;8.23;;;1.70;;
5458;SDS011;2752;49.992;8.422;2022-09-09T02:57:25;13.07;;;1.90;;
5458;SDS011;2752;49.992;8.422;2022-09-09T02:59:53;10.53;;;1.90;;
5458;SDS011;2752;49.992;8.422;2022-09-09T03:02:20;5.40;;;1.90;;
5458;SDS011;2752;49.992;8.422;2022-09-09T03:04:47;8.07;;;1.70;;
5458;SDS011;2752;49.992;8.422;2022-09-09T03:07:18;2.97;;;1.57;;
5458;SDS011;2752;49.992;8.422;2022-09-09T03:09:45;5.73;;;2.17;;
5458;SDS011;2752;49.992;8.422;2022-09-09T03:12:13;6.47;;;1.77;;
5458;SDS011;2752;49.992;8.422;2022-09-09T03:14:40;6.10;;;1.80;;
5458;SDS011;2752;49.992;8.422;2022-09-09T03:17:08;7.37;;;2.20;;
5458;SDS011;2752;49.992;8.422;2022-09-09T03:19:35;4.80;;;2.57;;
5458;SDS011;2752;49.992;8.422;2022-09-09T03:22:02;2.83;;;1.70;;
5458;SDS011;2752;49.992;8.422;2022-09-09T03:24:31;10.83;;;2.37;;
5458;SDS011;2752;49.992;8.422;2022-09-09T03:26:58;5.40;;;1.90;;
5458;SDS011;2752;49.992;8.422;2022-09-09T03:29:25;3.93;;;1.83;;
5458;SDS011;2752;49.992;8.422;2022-09-09T03:31:52;11.13;;;2.13;;
5458;SDS011;2752;49.992;8.422;2022-09-09T03:34:19;6.90;;;2.40;;
5458;SDS011;2752;49.992;8.422;2022-09-09T03:36:46;4.63;;;2.20;;
5458;SDS011;2752;49.992;8.422;2022-09-09T03:39:14;8.63;;;3.03;;
5458;SDS011;2752;49.992;8.422;2022-09-09T03:41:43;12.00;;;2.00;;
5458;SDS011;2752;49.992;8.422;2022-09-09T03:44:12;6.13;;;2.03;;
5458;SDS011;2752;49.992;8.422;2022-09-09T03:46:39;6.03;;;2.30;;
5458;SDS011;2752;49.992;8.422;2022-09-09T03:49:07;6.93;;;2.70;;
5458;SDS011;2752;49.992;8.422;2022-09-09T03:51:35;3.50;;;2.87;;
5458;SDS011;2752;49.992;8.422;2022-09-09T03:54:03;5.80;;;2.13;;
5458;SDS011;2752;49.992;8.422;2022-09-09T03:56:33;6.03;;;2.13;;
5458;SDS011;2752;49.992;8.422;2022-09-09T03:59:01;9.20;;;2.30;;
5458;SDS011;2752;49.992;8.422;2022-09-09T04:01:29;6.83;;;2.20;;
5458;SDS011;2752;49.992;8.422;2022-09-09T04:03:56;3.67;;;2.17;;
5458;SDS011;2752;49.992;8.422;2022-09-09T04:06:23;11.73;;;2.07;;
5458;SDS011;2752;49.992;8.422;2022-09-09T04:08:50;4.80;;;2.33;;
5458;SDS011;2752;49.992;8.422;2022-09-09T04:11:18;9.13;;;2.70;;
5458;SDS011;2752;49.992;8.422;2022-09-09T04:13:45;10.20;;;2.60;;
5458;SDS011;2752;49.992;8.422;2022-09-09T04:16:13;4.93;;;2.30;;
5458;SDS011;2752;49.992;8.422;2022-09-09T04:18:40;8.53;;;2.03;;
5458;SDS011;2752;49.992;8.422;2022-09-09T04:21:08;2.53;;;1.80;;
5458;SDS011;2752;49.992;8.422;2022-09-09T04:23:37;7.83;;;2.23;;
5458;SDS011;2752;49.992;8.422;2022-09-09T04:26:04;3.70;;;1.67;;
5458;SDS011;2752;49.992;8.422;2022-09-09T04:28:32;5.37;;;2.30;;
5458;SDS011;2752;49.992;8.422;2022-09-09T04:31:03;7.10;;;2.30;;
5458;SDS011;2752;49.992;8.422;2022-09-09T04:33:32;5.83;;;1.73;;
5458;SDS011;2752;49.992;8.422;2022-09-09T04:35:59;6.50;;;2.03;;
5458;SDS011;2752;49.992;8.422;2022-09-09T04:38:26;8.37;;;2.70;;
5458;SDS011;2752;49.992;8.422;2022-09-09T04:40:54;13.10;;;2.03;;
5458;SDS011;2752;49.992;8.422;2022-09-09T04:43:21;3.00;;;1.60;;
5458;SDS011;2752;49.992;8.422;2022-09-09T04:45:51;8.00;;;1.80;;
5458;SDS011;2752;49.992;8.422;2022-09-09T04:48:18;5.33;;;1.83;;
5458;SDS011;2752;49.992;8.422;2022-09-09T04:50:54;3.23;;;2.23;;
5458;SDS011;2752;49.992;8.422;2022-09-09T04:53:21;6.00;;;2.33;;
5458;SDS011;2752;49.992;8.422;2022-09-09T04:55:48;4.30;;;1.73;;
5458;SDS011;2752;49.992;8.422;2022-09-09T04:58:15;16.17;;;2.37;;
5458;SDS011;2752;49.992;8.422;2022-09-09T05:00:43;9.93;;;2.10;;
5458;SDS011;2752;49.992;8.422;2022-09-09T05:03:10;8.00;;;2.67;;
5458;SDS011;2752;49.992;8.422;2022-09-09T05:05:37;5.00;;;1.47;;
5458;SDS011;2752;49.992;8.422;2022-09-09T05:08:07;7.90;;;1.90;;
5458;SDS011;2752;49.992;8.422;2022-09-09T05:10:36;3.63;;;1.50;;
5458;SDS011;2752;49.992;8.422;2022-09-09T05:13:03;13.40;;;3.77;;
5458;SDS011;2752;49.992;8.422;2022-09-09T05:15:31;6.90;;;2.20;;
5458;SDS011;2752;49.992;8.422;2022-09-09T05:17:58;7.63;;;1.70;;
5458;SDS011;2752;49.992;8.422;2022-09-09T05:20:26;8.93;;;2.17;;
5458;SDS011;2752;49.992;8.422;2022-09-09T05:22:53;7.07;;;1.93;;
5458;SDS011;2752;49.992;8.422;2022-09-09T05:25:22;11.23;;;2.10;;
5458;SDS011;2752;49.992;8.422;2022-09-09T05:27:50;6.40;;;2.00;;
5458;SDS011;2752;49.992;8.422;2022-09-09T05:30:18;7.73;;;2.30;;
5458;SDS011;2752;49.992;8.422;2022-09-09T05:32:45;8.40;;;2.20;;
5458;SDS011;2752;49.992;8.422;2022-09-09T05:35:13;9.00;;;3.60;;
5458;SDS011;2752;49.992;8.422;2022-09-09T05:37:41;6.80;;;2.40;;
5458;SDS011;2752;49.992;8.422;2022-09-09T05:40:09;8.77;;;2.53;;
5458;SDS011;2752;49.992;8.422;2022-09-09T05:42:38;7.73;;;2.27;;
5458;SDS011;2752;49.992;8.422;2022-09-09T05:45:05;6.57;;;2.30;;
5458;SDS011;2752;49.992;8.422;2022-09-09T05:47:33;4.87;;;2.07;;
5458;SDS011;2752;49.992;8.422;2022-09-09T05:50:02;8.90;;;2.47;;
5458;SDS011;2752;49.992;8.422;2022-09-09T05:52:29;9.43;;;1.97;;
5458;SDS011;2752;49.992;8.422;2022-09-09T05:54:56;12.00;;;2.90;;
5458;SDS011;2752;49.992;8.422;2022-09-09T05:57:24;7.37;;;2.20;;
5458;SDS011;2752;49.992;8.422;2022-09-09T05:59:53;4.03;;;1.80;;
5458;SDS011;2752;49.992;8.422;2022-09-09T06:02:20;8.83;;;2.13;;
5458;SDS011;2752;49.992;8.422;2022-09-09T06:04:46;6.13;;;1.90;;
5458;SDS011;2752;49.992;8.422;2022-09-09T06:07:13;6.17;;;2.27;;
5458;SDS011;2752;49.992;8.422;2022-09-09T06:09:41;5.47;;;1.90;;
5458;SDS011;2752;49.992;8.422;2022-09-09T06:12:08;4.10;;;2.53;;
5458;SDS011;2752;49.992;8.422;2022-09-09T06:14:35;6.30;;;2.27;;
5458;SDS011;2752;49.992;8.422;2022-09-09T06:17:04;10.33;;;2.33;;
5458;SDS011;2752;49.992;8.422;2022-09-09T06:19:31;9.70;;;3.30;;
5458;SDS011;2752;49.992;8.422;2022-09-09T06:21:58;11.60;;;2.63;;
5458;SDS011;2752;49.992;8.422;2022-09-09T06:24:25;5.97;;;2.77;;
5458;SDS011;2752;49.992;8.422;2022-09-09T06:26:53;5.17;;;2.23;;
5458;SDS011;2752;49.992;8.422;2022-09-09T06:29:20;11.97;;;2.77;;
5458;SDS011;2752;49.992;8.422;2022-09-09T06:31:47;6.33;;;1.93;;
5458;SDS011;2752;49.992;8.422;2022-09-09T06:34:15;4.83;;;2.17;;
5458;SDS011;2752;49.992;8.422;2022-09-09T06:36:42;9.03;;;2.67;;
5458;SDS011;2752;49.992;8.422;2022-09-09T06:39:10;4.97;;;1.67;;
5458;SDS011;2752;49.992;8.422;2022-09-09T06:41:38;7.33;;;1.67;;
5458;SDS011;2752;49.992;8.422;2022-09-09T06:44:06;12.73;;;1.87;;
5458;SDS011;2752;49.992;8.422;2022-09-09T06:46:32;13.53;;;2.50;;
5458;SDS011;2752;49.992;8.422;2022-09-09T06:49:00;5.77;;;1.67;;
5458;SDS011;2752;49.992;8.422;2022-09-09T06:51:29;10.13;;;1.80;;
5458;SDS011;2752;49.992;8.422;2022-09-09T06:53:57;6.73;;;1.73;;
5458;SDS011;2752;49.992;8.422;2022-09-09T06:56:25;2.93;;;1.53;;
5458;SDS011;2752;49.992;8.422;2022-09-09T06:58:53;17.00;;;1.73;;
5458;SDS011;2752;49.992;8.422;2022-09-09T07:01:21;5.30;;;1.37;;
5458;SDS011;2752;49.992;8.422;2022-09-09T07:03:49;5.57;;;1.70;;
5458;SDS011;2752;49.992;8.422;2022-09-09T07:06:17;11.70;;;1.70;;
5458;SDS011;2752;49.992;8.422;2022-09-09T07:08:49;10.87;;;1.73;;
5458;SDS011;2752;49.992;8.422;2022-09-09T07:11:16;12.13;;;1.43;;
5458;SDS011;2752;49.992;8.422;2022-09-09T07:13:43;6.57;;;1.50;;
5458;SDS011;2752;49.992;8.422;2022-09-09T07:16:11;5.77;;;2.27;;
5458;SDS011;2752;49.992;8.422;2022-09-09T07:18:38;3.63;;;1.17;;
5458;SDS011;2752;49.992;8.422;2022-09-09T07:21:06;7.30;;;1.63;;
5458;SDS011;2752;49.992;8.422;2022-09-09T07:23:33;4.33;;;1.37;;
5458;SDS011;2752;49.992;8.422;2022-09-09T07:26:02;6.63;;;1.13;;
5458;SDS011;2752;49.992;8.422;2022-09-09T07:28:29;5.90;;;1.60;;
5458;SDS011;2752;49.992;8.422;2022-09-09T07:30:57;3.73;;;1.50;;
5458;SDS011;2752;49.992;8.422;2022-09-09T07:33:24;10.20;;;1.30;;
5458;SDS011;2752;49.992;8.422;2022-09-09T07:35:51;3.17;;;1.20;;
5458;SDS011;2752;49.992;8.422;2022-09-09T07:38:19;8.57;;;2.33;;
5458;SDS011;2752;49.992;8.422;2022-09-09T07:40:47;8.17;;;1.67;;
5458;SDS011;2752;49.992;8.422;2022-09-09T07:43:16;13.63;;;2.30;;
5458;SDS011;2752;49.992;8.422;2022-09-09T07:45:43;7.13;;;1.77;;
5458;SDS011;2752;49.992;8.422;2022-09-09T07:48:10;3.70;;;1.30;;
5458;SDS011;2752;49.992;8.422;2022-09-09T07:50:37;12.47;;;1.80;;
5458;SDS011;2752;49.992;8.422;2022-09-09T07:53:05;6.53;;;1.63;;
5458;SDS011;2752;49.992;8.422;2022-09-09T07:55:32;7.60;;;1.70;;
5458;SDS011;2752;49.992;8.422;2022-09-09T07:57:59;6.67;;;1.83;;
5458;SDS011;2752;49.992;8.422;2022-09-09T08:00:27;6.93;;;1.97;;
5458;SDS011;2752;49.992;8.422;2022-09-09T08:02:54;5.17;;;1.70;;
5458;SDS011;2752;49.992;8.422;2022-09-09T08:05:21;6.93;;;1.70;;
5458;SDS011;2752;49.992;8.422;2022-09-09T08:07:48;5.53;;;1.30;;
5458;SDS011;2752;49.992;8.422;2022-09-09T08:10:15;8.53;;;1.90;;
5458;SDS011;2752;49.992;8.422;2022-09-09T08:12:43;8.37;;;1.90;;
5458;SDS011;2752;49.992;8.422;2022-09-09T08:15:10;8.27;;;2.10;;
5458;SDS011;2752;49.992;8.422;2022-09-09T08:17:38;18.67;;;1.80;;
5458;SDS011;2752;49.992;8.422;2022-09-09T08:20:06;4.30;;;1.63;;
5458;SDS011;2752;49.992;8.422;2022-09-09T08:22:33;4.17;;;1.53;;
5458;SDS011;2752;49.992;8.422;2022-09-09T08:25:01;3.20;;;1.30;;
5458;SDS011;2752;49.992;8.422;2022-09-09T08:27:31;7.60;;;1.63;;
5458;SDS011;2752;49.992;8.422;2022-09-09T08:29:58;11.30;;;2.00;;
5458;SDS011;2752;49.992;8.422;2022-09-09T08:32:25;6.07;;;2.00;;
5458;SDS011;2752;49.992;8.422;2022-09-09T08:34:53;5.07;;;1.27;;
5458;SDS011;2752;49.992;8.422;2022-09-09T08:37:20;4.63;;;2.00;;
5458;SDS011;2752;49.992;8.422;2022-09-09T08:39:47;5.00;;;1.90;;
5458;SDS011;2752;49.992;8.422;2022-09-09T08:42:22;6.73;;;1.83;;
5458;SDS011;2752;49.992;8.422;2022-09-09T08:44:57;6.60;;;1.73;;
5458;SDS011;2752;49.992;8.422;2022-09-09T08:47:27;3.40;;;1.30;;
5458;SDS011;2752;49.992;8.422;2022-09-09T08:50:02;4.90;;;1.80;;
5458;SDS011;2752;49.992;8.422;2022-09-09T08:52:36;8.33;;;1.47;;
5458;SDS011;2752;49.992;8.422;2022-09-09T08:55:10;7.23;;;1.93;;
5458;SDS011;2752;49.992;8.422;2022-09-09T08:57:40;3.00;;;1.73;;
5458;SDS011;2752;49.992;8.422;2022-09-09T09:00:08;7.73;;;1.80;;
5458;SDS011;2752;49.992;8.422;2022-09-09T09:02:38;9.30;;;2.30;;
5458;SDS011;2752;49.992;8.422;2022-09-09T09:05:14;16.20;;;1.50;;
5458;SDS011;2752;49.992;8.422;2022-09-09T09:07:47;9.60;;;2.13;;
5458;SDS011;2752;49.992;8.422;2022-09-09T09:10:18;5.63;;;2.10;;
5458;SDS011;2752;49.992;8.422;2022-09-09T09:12:47;12.47;;;1.90;;
5458;SDS011;2752;49.992;8.422;2022-09-09T09:15:16;7.57;;;1.30;;
5458;SDS011;2752;49.992;8.422;2022-09-09T09:17:44;2.33;;;1.27;;
5458;SDS011;2752;49.992;8.422;2022-09-09T09:20:13;7.90;;;1.90;;
5458;SDS011;2752;49.992;8.422;2022-09-09T09:22:44;8.83;;;1.80;;
5458;SDS011;2752;49.992;8.422;2022-09-09T09:25:14;11.90;;;2.13;;
5458;SDS011;2752;49.992;8.422;2022-09-09T09:27:43;6.60;;;1.73;;
5458;SDS011;2752;49.992;8.422;2022-09-09T09:30:14;8.63;;;2.60;;
5458;SDS011;2752;49.992;8.422;2022-09-09T09:32:43;11.57;;;2.20;;
5458;SDS011;2752;49.992;8.422;2022-09-09T09:35:14;6.50;;;1.83;;
5458;SDS011;2752;49.992;8.422;2022-09-09T09:37:41;19.23;;;2.70;;
5458;SDS011;2752;49.992;8.422;2022-09-09T09:40:10;6.50;;;1.70;;
5458;SDS011;2752;49.992;8.422;2022-09-09T09:42:38;10.53;;;2.07;;
5458;SDS011;2752;49.992;8.422;2022-09-09T09:45:08;11.37;;;2.20;;
5458;SDS011;2752;49.992;8.422;2022-09-09T09:47:43;9.07;;;1.90;;
5458;SDS011;2752;49.992;8.422;2022-09-09T09:50:17;13.87;;;2.63;;
5458;SDS011;2752;49.992;8.422;2022-09-09T09:52:52;17.03;;;2.20;;
5458;SDS011;2752;49.992;8.422;2022-09-09T09:55:20;8.15;;;1.60;;
5458;SDS011;2752;49.992;8.422;2022-09-09T09:57:47;9.83;;;1.90;;
5458;SDS011;2752;49.992;8.422;2022-09-09T10:00:16;6.00;;;1.27;;
5458;SDS011;2752;49.992;8.422;2022-09-09T10:02:44;2.00;;;0.90;;
5458;SDS011;2752;49.992;8.422;2022-09-09T10:05:15;5.43;;;1.37;;
5458;SDS011;2752;49.992;8.422;2022-09-09T10:07:43;7.77;;;1.60;;
5458;SDS011;2752;49.992;8.422;2022-09-09T10:10:12;4.90;;;1.20;;
5458;SDS011;2752;49.992;8.422;2022-09-09T10:12:42;3.73;;;1.23;;
5458;SDS011;2752;49.992;8.422;2022-09-09T10:15:22;7.17;;;1.23;;
5458;SDS011;2752;49.992;8.422;2022-09-09T10:17:54;13.60;;;1.80;;
5458;SDS011;2752;49.992;8.422;2022-09-09T10:20:27;10.80;;;2.03;;
5458;SDS011;2752;49.992;8.422;2022-09-09T10:23:02;12.70;;;1.33;;
5458;SDS011;2752;49.992;8.422;2022-09-09T10:25:35;6.20;;;1.37;;
5458;SDS011;2752;49.992;8.422;2022-09-09T10:30:51;6.20;;;1.10;;
5458;SDS011;2752;49.992;8.422;2022-09-09T10:33:21;9.10;;;2.90;;
5458;SDS011;2752;49.992;8.422;2022-09-09T10:35:54;9.37;;;1.57;;
5458;SDS011;2752;49.992;8.422;2022-09-09T10:38:27;6.47;;;1.37;;
5458;SDS011;2752;49.992;8.422;2022-09-09T10:41:00;5.73;;;1.47;;
5458;SDS011;2752;49.992;8.422;2022-09-09T10:43:38;9.50;;;1.73;;
5458;SDS011;2752;49.992;8.422;2022-09-09T10:46:09;2.63;;;1.10;;
5458;SDS011;2752;49.992;8.422;2022-09-09T10:48:43;4.30;;;1.23;;
5458;SDS011;2752;49.992;8.422;2022-09-09T10:51:21;8.13;;;1.73;;
5458;SDS011;2752;49.992;8.422;2022-09-09T10:53:53;6.90;;;1.53;;
5458;SDS011;2752;49.992;8.422;2022-09-09T10:56:24;2.97;;;1.20;;
5458;SDS011;2752;49.992;8.422;2022-09-09T10:58:52;6.10;;;1.33;;
5458;SDS011;2752;49.992;8.422;2022-09-09T11:01:21;5.53;;;1.60;;
5458;SDS011;2752;49.992;8.422;2022-09-09T11:03:51;3.70;;;1.17;;
5458;SDS011;2752;49.992;8.422;2022-09-09T11:06:21;3.87;;;1.57;;
5458;SDS011;2752;49.992;8.422;2022-09-09T11:08:49;7.37;;;1.20;;
5458;SDS011;2752;49.992;8.422;2022-09-09T11:11:20;5.03;;;1.20;;
5458;SDS011;2752;49.992;8.422;2022-09-09T11:13:53;7.83;;;1.30;;
5458;SDS011;2752;49.992;8.422;2022-09-09T11:16:22;4.33;;;1.50;;
5458;SDS011;2752;49.992;8.422;2022-09-09T11:18:51;6.07;;;1.60;;
5458;SDS011;2752;49.992;8.422;2022-09-09T11:21:23;6.77;;;1.93;;
5458;SDS011;2752;49.992;8.422;2022-09-09T11:23:53;1.87;;;1.17;;
5458;SDS011;2752;49.992;8.422;2022-09-09T11:26:28;6.00;;;1.30;;
5458;SDS011;2752;49.992;8.422;2022-09-09T11:28:59;4.40;;;1.40;;
5458;SDS011;2752;49.992;8.422;2022-09-09T11:31:36;3.73;;;1.10;;
5458;SDS011;2752;49.992;8.422;2022-09-09T11:34:11;6.37;;;1.07;;
5458;SDS011;2752;49.992;8.422;2022-09-09T11:36:48;4.93;;;1.30;;
5458;SDS011;2752;49.992;8.422;2022-09-09T11:39:31;2.50;;;1.10;;
5458;SDS011;2752;49.992;8.422;2022-09-09T11:42:06;2.90;;;1.00;;
5458;SDS011;2752;49.992;8.422;2022-09-09T11:44:34;8.73;;;1.30;;
5458;SDS011;2752;49.992;8.422;2022-09-09T11:47:01;8.57;;;1.90;;
5458;SDS011;2752;49.992;8.422;2022-09-09T11:49:28;3.97;;;1.50;;
5458;SDS011;2752;49.992;8.422;2022-09-09T11:51:56;5.70;;;1.43;;
5458;SDS011;2752;49.992;8.422;2022-09-09T11:54:28;7.40;;;1.50;;
5458;SDS011;2752;49.992;8.422;2022-09-09T11:56:55;2.97;;;0.90;;
5458;SDS011;2752;49.992;8.422;2022-09-09T11:59:24;5.80;;;1.57;;
5458;SDS011;2752;49.992;8.422;2022-09-09T12:01:54;10.53;;;1.27;;
5458;SDS011;2752;49.992;8.422;2022-09-09T12:04:27;8.20;;;1.43;;
5458;SDS011;2752;49.992;8.422;2022-09-09T12:06:56;3.17;;;1.37;;
5458;SDS011;2752;49.992;8.422;2022-09-09T12:09:25;8.97;;;2.00;;
5458;SDS011;2752;49.992;8.422;2022-09-09T12:12:04;7.73;;;1.43;;
5458;SDS011;2752;49.992;8.422;2022-09-09T12:14:36;9.13;;;1.20;;
5458;SDS011;2752;49.992;8.422;2022-09-09T12:19:44;5.40;;;1.23;;
5458;SDS011;2752;49.992;8.422;2022-09-09T12:22:14;5.37;;;1.80;;
5458;SDS011;2752;49.992;8.422;2022-09-09T12:24:43;10.43;;;2.53;;
5458;SDS011;2752;49.992;8.422;2022-09-09T12:27:14;7.07;;;1.10;;
5458;SDS011;2752;49.992;8.422;2022-09-09T12:29:47;3.23;;;1.27;;
5458;SDS011;2752;49.992;8.422;2022-09-09T12:32:19;3.90;;;1.07;;
5458;SDS011;2752;49.992;8.422;2022-09-09T12:34:49;9.30;;;1.50;;
5458;SDS011;2752;49.992;8.422;2022-09-09T12:37:21;5.23;;;1.60;;
5458;SDS011;2752;49.992;8.422;2022-09-09T12:39:51;4.10;;;1.00;;
5458;SDS011;2752;49.992;8.422;2022-09-09T12:42:20;8.70;;;1.20;;
5458;SDS011;2752;49.992;8.422;2022-09-09T12:44:55;5.70;;;0.90;;
5458;SDS011;2752;49.992;8.422;2022-09-09T12:47:25;13.37;;;0.90;;
5458;SDS011;2752;49.992;8.422;2022-09-09T12:49:54;5.40;;;1.33;;
5458;SDS011;2752;49.992;8.422;2022-09-09T12:52:23;7.00;;;1.03;;
5458;SDS011;2752;49.992;8.422;2022-09-09T12:54:51;4.20;;;1.10;;
5458;SDS011;2752;49.992;8.422;2022-09-09T12:57:18;3.80;;;1.30;;
5458;SDS011;2752;49.992;8.422;2022-09-09T12:59:46;3.13;;;0.87;;
5458;SDS011;2752;49.992;8.422;2022-09-09T13:02:19;1.57;;;0.83;;
5458;SDS011;2752;49.992;8.422;2022-09-09T13:04:46;7.20;;;1.20;;
5458;SDS011;2752;49.992;8.422;2022-09-09T13:07:15;1.33;;;0.80;;
5458;SDS011;2752;49.992;8.422;2022-09-09T13:09:43;2.43;;;0.90;;
5458;SDS011;2752;49.992;8.422;2022-09-09T13:12:11;4.40;;;0.90;;
5458;SDS011;2752;49.992;8.422;2022-09-09T13:14:40;8.90;;;1.10;;
5458;SDS011;2752;49.992;8.422;2022-09-09T13:17:16;2.10;;;0.73;;
5458;SDS011;2752;49.992;8.422;2022-09-09T13:19:45;8.03;;;1.20;;
5458;SDS011;2752;49.992;8.422;2022-09-09T13:22:13;2.90;;;0.90;;
5458;SDS011;2752;49.992;8.422;2022-09-09T13:24:40;4.90;;;0.80;;
5458;SDS011;2752;49.992;8.422;2022-09-09T13:27:20;0.90;;;0.60;;
5458;SDS011;2752;49.992;8.422;2022-09-09T13:29:50;2.20;;;0.50;;
5458;SDS011;2752;49.992;8.422;2022-09-09T13:32:19;0.70;;;0.40;;
5458;SDS011;2752;49.992;8.422;2022-09-09T13:34:51;2.23;;;0.73;;
5458;SDS011;2752;49.992;8.422;2022-09-09T13:37:20;2.13;;;0.80;;
5458;SDS011;2752;49.992;8.422;2022-09-09T13:39:51;1.77;;;0.70;;
5458;SDS011;2752;49.992;8.422;2022-09-09T13:42:21;1.00;;;0.70;;
5458;SDS011;2752;49.992;8.422;2022-09-09T13:44:51;0.80;;;0.50;;
5458;SDS011;2752;49.992;8.422;2022-09-09T13:47:18;5.20;;;1.10;;
5458;SDS011;2752;49.992;8.422;2022-09-09T13:49:47;2.30;;;1.03;;
5458;SDS011;2752;49.992;8.422;2022-09-09T13:52:16;2.60;;;1.00;;
5458;SDS011;2752;49.992;8.422;2022-09-09T13:54:46;4.70;;;0.80;;
5458;SDS011;2752;49.992;8.422;2022-09-09T13:57:15;4.77;;;1.00;;
5458;SDS011;2752;49.992;8.422;2022-09-09T13:59:43;2.73;;;0.97;;
5458;SDS011;2752;49.992;8.422;2022-09-09T14:02:10;3.20;;;0.70;;
5458;SDS011;2752;49.992;8.422;2022-09-09T14:04:37;4.53;;;1.20;;
5458;SDS011;2752;49.992;8.422;2022-09-09T14:07:07;6.80;;;0.97;;
5458;SDS011;2752;49.992;8.422;2022-09-09T14:09:37;3.47;;;0.80;;
5458;SDS011;2752;49.992;8.422;2022-09-09T14:12:05;3.67;;;1.40;;
5458;SDS011;2752;49.992;8.422;2022-09-09T14:14:34;7.50;;;1.33;;
5458;SDS011;2752;49.992;8.422;2022-09-09T14:17:01;4.97;;;1.50;;
5458;SDS011;2752;49.992;8.422;2022-09-09T14:19:28;1.50;;;0.90;;
5458;SDS011;2752;49.992;8.422;2022-09-09T14:21:55;2.67;;;1.00;;
5458;SDS011;2752;49.992;8.422;2022-09-09T14:24:22;4.00;;;1.43;;
5458;SDS011;2752;49.992;8.422;2022-09-09T14:26:51;7.90;;;1.20;;
5458;SDS011;2752;49.992;8.422;2022-09-09T14:29:18;4.53;;;0.83;;
5458;SDS011;2752;49.992;8.422;2022-09-09T14:31:44;2.50;;;1.13;;
5458;SDS011;2752;49.992;8.422;2022-09-09T14:34:11;3.43;;;1.17;;
5458;SDS011;2752;49.992;8.422;2022-09-09T14:36:39;2.67;;;0.90;;
5458;SDS011;2752;49.992;8.422;2022-09-09T14:39:06;2.20;;;0.90;;
5458;SDS011;2752;49.992;8.422;2022-09-09T14:41:33;3.07;;;0.90;;
5458;SDS011;2752;49.992;8.422;2022-09-09T14:44:01;3.33;;;1.20;;
5458;SDS011;2752;49.992;8.422;2022-09-09T14:46:28;1.17;;;0.60;;
5458;SDS011;2752;49.992;8.422;2022-09-09T14:48:54;4.87;;;0.77;;
5458;SDS011;2752;49.992;8.422;2022-09-09T14:51:23;3.07;;;1.27;;
5458;SDS011;2752;49.992;8.422;2022-09-09T14:53:52;2.23;;;1.00;;
5458;SDS011;2752;49.992;8.422;2022-09-09T14:56:20;7.40;;;0.77;;
5458;SDS011;2752;49.992;8.422;2022-09-09T14:58:49;2.00;;;1.00;;
5458;SDS011;2752;49.992;8.422;2022-09-09T15:01:18;4.93;;;1.33;;
5458;SDS011;2752;49.992;8.422;2022-09-09T15:03:48;1.93;;;0.83;;
5458;SDS011;2752;49.992;8.422;2022-09-09T15:06:16;2.60;;;1.13;;
5458;SDS011;2752;49.992;8.422;2022-09-09T15:08:44;5.33;;;1.00;;
5458;SDS011;2752;49.992;8.422;2022-09-09T15:11:12;4.37;;;1.30;;
5458;SDS011;2752;49.992;8.422;2022-09-09T15:13:40;2.40;;;0.80;;
5458;SDS011;2752;49.992;8.422;2022-09-09T15:16:09;9.83;;;1.60;;
5458;SDS011;2752;49.992;8.422;2022-09-09T15:18:38;3.43;;;1.00;;
5458;SDS011;2752;49.992;8.422;2022-09-09T15:21:08;5.57;;;1.20;;
5458;SDS011;2752;49.992;8.422;2022-09-09T15:23:35;2.23;;;1.00;;
5458;SDS011;2752;49.992;8.422;2022-09-09T15:26:02;3.23;;;0.90;;
5458;SDS011;2752;49.992;8.422;2022-09-09T15:28:31;5.80;;;1.00;;
5458;SDS011;2752;49.992;8.422;2022-09-09T15:30:58;5.60;;;0.80;;
5458;SDS011;2752;49.992;8.422;2022-09-09T15:33:31;3.27;;;1.03;;
5458;SDS011;2752;49.992;8.422;2022-09-09T15:35:59;15.20;;;1.60;;
5458;SDS011;2752;49.992;8.422;2022-09-09T15:38:26;4.13;;;1.87;;
5458;SDS011;2752;49.992;8.422;2022-09-09T15:40:53;3.00;;;1.17;;